Time;durP1;ratioP1;P1;durP2;ratioP2;P2;SDS_P1;SDS_P2;PMS_P1;PMS_P2;Temp;Humidity;BMP_temperature;BMP_pressure;BME280_temperature;BME280_humidity;BME280_pressure;Samples;Min_cycle;Max_cycle;Signal;HPM_P1;HPM_P2
2023/01/11 00:00:28;;;;;;;4.85;1.70;;;8.50;99.90;;;;;;5015249;28;20041;-65
2023/01/11 00:02:59;;;;;;;1.83;1.13;;;8.50;99.90;;;;;;5033079;28;20056;-66
2023/01/11 00:05:25;;;;;;;3.50;1.30;;;8.50;99.90;;;;;;5031906;28;20515;-66
2023/01/11 00:07:50;;;;;;;2.03;1.50;;;8.60;99.90;;;;;;5032915;28;20319;-66
2023/01/11 00:10:16;;;;;;;2.75;1.30;;;8.50;99.90;;;;;;5033101;28;20041;-66
2023/01/11 00:12:42;;;;;;;2.17;1.27;;;8.50;99.90;;;;;;5031834;28;20041;-66
2023/01/11 00:15:08;;;;;;;2.03;1.60;;;8.60;99.90;;;;;;5032998;28;20116;-66
2023/01/11 00:17:34;;;;;;;1.33;1.20;;;8.60;99.90;;;;;;5031726;28;20030;-65
2023/01/11 00:19:59;;;;;;;3.03;1.65;;;8.60;99.90;;;;;;5032967;28;20045;-65
2023/01/11 00:22:26;;;;;;;1.77;1.33;;;9.20;99.90;;;;;;5031641;28;20099;-66
2023/01/11 00:24:51;;;;;;;2.25;1.38;;;8.70;99.90;;;;;;5032919;28;20064;-65
2023/01/11 00:27:17;;;;;;;3.30;1.33;;;8.70;99.90;;;;;;5032884;28;20546;-66
2023/01/11 00:29:43;;;;;;;1.92;1.13;;;8.80;99.90;;;;;;5033215;28;20042;-65
2023/01/11 00:32:09;;;;;;;1.48;1.15;;;8.80;99.90;;;;;;5032806;28;20045;-66
2023/01/11 00:34:34;;;;;;;1.67;1.42;;;8.80;99.90;;;;;;5031339;28;20041;-65
2023/01/11 00:37:00;;;;;;;1.88;1.20;;;8.80;99.90;;;;;;5032786;28;20447;-66
2023/01/11 00:39:26;;;;;;;0.60;0.60;;;8.90;99.90;;;;;;5032822;28;20493;-65
2023/01/11 00:50:05;;;;;;;2.25;1.20;;;9.00;99.90;;;;;;5031149;28;20050;-67
2023/01/11 00:52:30;;;;;;;2.92;1.67;;;9.00;99.90;;;;;;5032658;28;20068;-65
2023/01/11 00:54:56;;;;;;;1.67;1.25;;;9.00;99.90;;;;;;5018451;28;20484;-65
2023/01/11 00:57:22;;;;;;;1.92;1.17;;;9.00;99.90;;;;;;5036331;28;20037;-65
2023/01/11 00:59:47;;;;;;;2.17;1.42;;;9.00;99.90;;;;;;5036016;28;20049;-66
2023/01/11 01:02:13;;;;;;;1.77;1.05;;;9.10;99.90;;;;;;5034769;28;20040;-66
2023/01/11 01:04:39;;;;;;;2.28;1.52;;;9.10;99.90;;;;;;5036102;28;20435;-66
2023/01/11 01:07:05;;;;;;;2.25;0.95;;;9.10;99.90;;;;;;5034653;28;20041;-66
2023/01/11 01:09:31;;;;;;;3.65;1.00;;;9.10;99.90;;;;;;5035849;28;20057;-66
2023/01/11 01:11:57;;;;;;;1.52;1.20;;;9.90;99.90;;;;;;5036233;28;20036;-66
2023/01/11 01:14:29;;;;;;;1.58;1.02;;;9.10;99.90;;;;;;5034632;28;20045;-65
2023/01/11 01:17:01;;;;;;;1.58;1.13;;;9.10;99.90;;;;;;5034844;28;20156;-66
2023/01/11 01:19:28;;;;;;;1.70;1.15;;;9.10;99.90;;;;;;5036007;28;20064;-66
2023/01/11 01:21:55;;;;;;;1.63;1.15;;;9.10;99.90;;;;;;5035915;28;20041;-66
2023/01/11 01:24:21;;;;;;;2.58;1.50;;;9.20;99.90;;;;;;5035562;28;20048;-66
2023/01/11 01:26:46;;;;;;;2.67;1.00;;;9.90;99.90;;;;;;5034419;28;20029;-68
2023/01/11 01:29:13;;;;;;;1.90;1.25;;;9.20;99.90;;;;;;5035869;28;20073;-67
2023/01/11 01:31:39;;;;;;;1.15;1.05;;;9.20;99.90;;;;;;5035526;28;20041;-67
2023/01/11 01:34:05;;;;;;;2.75;1.40;;;9.20;99.90;;;;;;5035746;28;20075;-67
2023/01/11 01:36:31;;;;;;;1.45;1.08;;;9.20;99.90;;;;;;5034202;28;20055;-66
2023/01/11 01:38:59;;;;;;;0.85;0.77;;;9.30;99.90;;;;;;5034096;28;20045;-67
2023/01/11 01:41:25;;;;;;;1.50;1.23;;;9.30;99.90;;;;;;5035628;28;20443;-66
2023/01/11 01:43:54;;;;;;;0.90;0.73;;;9.30;99.90;;;;;;5035191;28;20037;-67
2023/01/11 01:46:25;;;;;;;1.05;0.95;;;9.30;99.90;;;;;;5034312;28;20083;-66
2023/01/11 01:49:13;;;;;;;1.55;1.10;;;9.40;99.90;;;;;;5033983;28;20096;-67
2023/01/11 01:51:51;;;;;;;2.03;1.17;;;9.30;99.90;;;;;;5020106;28;20089;-67
2023/01/11 01:54:22;;;;;;;1.75;1.15;;;9.30;99.90;;;;;;5035013;28;20077;-66
2023/01/11 01:56:50;;;;;;;;;;;9.30;99.90;;;;;;5035443;28;20037;-66
2023/01/11 01:59:19;;;;;;;1.85;1.40;;;9.40;99.90;;;;;;5035165;28;20387;-67
2023/01/11 02:01:46;;;;;;;0.98;0.90;;;9.30;99.90;;;;;;5034067;28;20041;-66
2023/01/11 02:04:14;;;;;;;1.45;1.23;;;9.50;99.90;;;;;;5034288;28;20488;-66
2023/01/11 02:06:41;;;;;;;1.42;1.15;;;9.50;99.90;;;;;;5034009;28;20512;-66
2023/01/11 02:09:33;;;;;;;1.73;1.30;;;9.80;99.90;;;;;;5034727;28;20111;-66
2023/01/11 02:12:00;;;;;;;1.25;0.90;;;9.90;99.90;;;;;;5033487;28;20045;-66
2023/01/11 02:14:28;;;;;;;0.98;0.77;;;9.60;99.90;;;;;;5033397;28;20041;-66
2023/01/11 02:16:54;;;;;;;1.73;1.15;;;9.60;99.90;;;;;;5033598;28;20084;-67
2023/01/11 02:19:27;;;;;;;1.60;1.25;;;9.50;99.90;;;;;;5034761;28;20049;-66
2023/01/11 02:22:21;;;;;;;1.98;1.17;;;9.70;99.90;;;;;;5016794;28;20045;-67
2023/01/11 02:25:08;;;;;;;2.25;1.20;;;;;;;;;;5034727;28;20083;-67
2023/01/11 02:27:55;;;;;;;0.90;0.82;;;9.60;99.90;;;;;;5034667;28;20124;-66
2023/01/11 02:30:48;;;;;;;1.17;0.70;;;9.70;99.90;;;;;;5034547;28;20045;-66
2023/01/11 02:33:19;;;;;;;1.90;1.25;;;9.70;99.90;;;;;;5026843;28;20045;-66
2023/01/11 02:36:08;;;;;;;1.60;1.17;;;9.70;99.90;;;;;;5034141;28;20037;-67
2023/01/11 02:38:54;;;;;;;1.55;1.10;;;9.70;99.90;;;;;;5034393;28;20037;-66
2023/01/11 02:47:32;;;;;;;2.67;1.00;;;9.80;99.90;;;;;;5032676;28;20049;-66
2023/01/11 02:50:15;;;;;;;2.33;1.08;;;9.80;99.90;;;;;;5034215;28;20042;-66
2023/01/11 02:52:57;;;;;;;3.80;1.10;;;9.80;99.90;;;;;;5034211;28;20038;-66
2023/01/11 02:55:32;;;;;;;1.35;1.00;;;9.80;99.90;;;;;;5032918;28;20548;-67
2023/01/11 02:58:01;;;;;;;1.77;1.15;;;10.50;99.90;;;;;;5033846;28;20084;-66
2023/01/11 03:00:27;;;;;;;3.42;1.15;;;9.90;99.90;;;;;;5034114;28;20048;-66
2023/01/11 03:03:16;;;;;;;1.10;0.95;;;9.90;99.90;;;;;;5032527;28;20478;-66
2023/01/11 03:05:52;;;;;;;1.08;0.90;;;9.90;99.90;;;;;;5033959;28;20041;-67
2023/01/11 03:08:43;;;;;;;1.08;0.98;;;9.90;99.90;;;;;;5033705;28;20059;-66
2023/01/11 03:14:37;;;;;;;2.25;1.35;;;9.90;99.90;;;;;;5033838;28;20057;-67
2023/01/11 03:17:19;;;;;;;0.85;0.70;;;10.00;99.90;;;;;;5032450;28;20126;-67
2023/01/11 03:19:53;;;;;;;1.50;0.90;;;10.00;99.90;;;;;;5033730;28;20042;-66
2023/01/11 03:22:26;;;;;;;2.10;0.82;;;10.00;99.90;;;;;;5033443;28;20044;-66
2023/01/11 03:25:22;;;;;;;0.60;0.60;;;10.30;99.90;;;;;;5033934;28;20458;-66
2023/01/11 03:28:07;;;;;;;0.90;0.77;;;10.00;99.90;;;;;;5032477;28;20034;-66
2023/01/11 03:30:45;;;;;;;0.93;0.80;;;10.00;99.90;;;;;;5032121;28;20041;-67
2023/01/11 03:33:19;;;;;;;1.70;1.00;;;10.00;99.90;;;;;;5032060;28;20124;-66
2023/01/11 03:35:59;;;;;;;2.83;0.90;;;10.00;99.90;;;;;;5033531;28;20061;-66
2023/01/11 03:38:40;;;;;;;1.08;0.70;;;10.00;99.90;;;;;;5033106;28;20393;-66
2023/01/11 03:41:14;;;;;;;0.65;0.55;;;10.00;99.90;;;;;;5015748;28;20060;-67
2023/01/11 03:43:42;;;;;;;0.95;0.70;;;10.10;99.90;;;;;;5032282;28;20506;-66
2023/01/11 03:46:13;;;;;;;0.55;0.55;;;10.10;99.90;;;;;;5033354;28;20451;-66
2023/01/11 03:48:45;;;;;;;0.75;0.45;;;10.70;99.90;;;;;;5033316;28;20076;-66
2023/01/11 03:51:15;;;;;;;0.60;0.50;;;10.10;99.90;;;;;;5033254;28;20041;-66
2023/01/11 03:53:45;;;;;;;0.68;0.60;;;10.10;99.90;;;;;;5032987;28;20124;-67
2023/01/11 03:56:14;;;;;;;0.95;0.43;;;10.60;99.90;;;;;;5031688;28;20444;-67
2023/01/11 03:58:39;;;;;;;2.40;0.35;;;10.60;99.90;;;;;;5033018;28;20481;-66
2023/01/11 04:01:06;;;;;;;1.35;0.70;;;10.20;99.90;;;;;;5015600;28;20038;-66
2023/01/11 04:03:32;;;;;;;0.38;0.30;;;10.10;99.90;;;;;;5033222;28;20481;-66
2023/01/11 04:06:01;;;;;;;0.22;0.22;;;10.10;99.90;;;;;;5033149;28;20048;-67
2023/01/11 04:08:28;;;;;;;0.40;0.40;;;10.60;99.90;;;;;;5031344;28;20072;-66
2023/01/11 04:10:53;;;;;;;0.30;0.30;;;10.10;99.90;;;;;;5015147;28;20053;-66
2023/01/11 04:13:19;;;;;;;0.30;0.30;;;10.20;99.90;;;;;;5031773;28;20443;-66
2023/01/11 04:15:44;;;;;;;1.25;0.47;;;10.10;99.90;;;;;;5032827;28;20041;-66
2023/01/11 04:18:10;;;;;;;0.28;0.28;;;10.80;99.90;;;;;;5031446;28;20052;-66
2023/01/11 04:20:39;;;;;;;0.55;0.35;;;10.20;99.90;;;;;;5032656;28;20040;-66
2023/01/11 04:23:06;;;;;;;0.25;0.25;;;10.20;99.90;;;;;;5031444;28;20068;-67
2023/01/11 04:25:31;;;;;;;0.32;0.32;;;10.70;99.90;;;;;;5031438;28;20038;-66
2023/01/11 04:27:57;;;;;;;1.00;0.30;;;10.30;99.90;;;;;;5034705;28;20405;-66
2023/01/11 04:30:23;;;;;;;0.30;0.30;;;10.30;99.90;;;;;;5018950;28;20037;-66
2023/01/11 04:32:49;;;;;;;0.47;0.35;;;10.20;99.90;;;;;;5036926;28;20116;-66
2023/01/11 04:35:15;;;;;;;0.30;0.30;;;10.20;99.90;;;;;;5036564;28;20530;-66
2023/01/11 04:37:41;;;;;;;0.38;0.32;;;10.50;99.90;;;;;;5036800;28;20064;-66
2023/01/11 04:40:08;;;;;;;0.30;0.30;;;10.40;99.90;;;;;;5035503;28;20136;-67
2023/01/11 04:42:34;;;;;;;0.70;0.70;;;10.40;99.90;;;;;;5036289;28;20045;-66
2023/01/11 04:44:59;;;;;;;0.95;0.85;;;10.60;99.90;;;;;;5036684;28;20048;-66
2023/01/11 04:47:25;;;;;;;0.57;0.57;;;10.30;99.90;;;;;;5036664;28;20094;-66
2023/01/11 04:49:50;;;;;;;0.73;0.52;;;10.30;99.90;;;;;;5035354;28;20040;-66
2023/01/11 04:52:18;;;;;;;2.67;0.50;;;10.30;99.90;;;;;;5036479;28;20033;-66
2023/01/11 04:54:45;;;;;;;1.90;1.20;;;10.70;99.90;;;;;;5034968;28;20045;-66
2023/01/11 04:57:15;;;;;;;2.60;1.05;;;10.50;99.90;;;;;;5036424;28;20408;-66
2023/01/11 04:59:41;;;;;;;2.53;0.88;;;10.60;99.90;;;;;;5034712;28;20046;-66
2023/01/11 05:02:07;;;;;;;1.92;1.48;;;10.50;99.90;;;;;;5036362;28;20036;-66
2023/01/11 05:04:33;;;;;;;1.40;0.90;;;10.50;99.90;;;;;;5035052;28;20045;-66
2023/01/11 05:06:58;;;;;;;3.03;1.15;;;10.50;99.90;;;;;;5035113;28;20048;-66
2023/01/11 05:09:24;;;;;;;3.67;1.60;;;10.90;99.90;;;;;;5034553;28;20057;-66
2023/01/11 05:11:49;;;;;;;5.30;1.00;;;10.60;99.90;;;;;;5035845;28;20034;-66
2023/01/11 05:14:16;;;;;;;2.47;0.93;;;11.50;99.90;;;;;;5034894;28;20041;-67
2023/01/11 05:16:42;;;;;;;3.20;1.00;;;10.70;99.90;;;;;;5036043;28;20056;-68
2023/01/11 05:19:11;;;;;;;4.05;1.58;;;10.60;99.90;;;;;;5035977;28;20128;-66
2023/01/11 05:21:38;;;;;;;3.47;1.20;;;;;;;;;;5034660;28;20477;-66
2023/01/11 05:24:06;;;;;;;3.47;0.95;;;10.60;99.90;;;;;;5035794;28;20037;-66
2023/01/11 05:26:35;;;;;;;5.97;1.30;;;10.60;99.90;;;;;;5035511;28;20044;-65
2023/01/11 05:29:03;;;;;;;3.15;1.23;;;10.60;99.90;;;;;;5035840;28;20041;-65
2023/01/11 05:31:31;;;;;;;5.50;1.35;;;11.10;99.90;;;;;;5035822;28;20099;-66
2023/01/11 05:33:57;;;;;;;5.32;1.73;;;10.60;99.90;;;;;;5035810;28;20048;-66
2023/01/11 05:36:24;;;;;;;8.75;1.58;;;10.60;99.90;;;;;;5034146;28;20049;-66
2023/01/11 05:38:51;;;;;;;6.55;1.17;;;10.60;99.90;;;;;;5034295;28;20432;-66
2023/01/11 05:41:19;;;;;;;4.43;1.25;;;10.70;99.90;;;;;;5035918;28;20092;-66
2023/01/11 05:46:32;;;;;;;5.07;1.40;;;10.70;99.90;;;;;;5035521;28;20046;-66
2023/01/11 05:48:58;;;;;;;5.07;1.10;;;10.60;99.90;;;;;;5035497;28;20135;-66
2023/01/11 05:51:24;;;;;;;5.72;1.85;;;10.60;99.90;;;;;;5034168;28;20124;-66
2023/01/11 05:53:51;;;;;;;2.30;0.80;;;10.50;99.90;;;;;;5035336;28;20552;-66
2023/01/11 05:56:18;;;;;;;12.85;1.83;;;10.50;99.90;;;;;;5033820;28;20056;-66
2023/01/11 05:58:47;;;;;;;8.35;1.33;;;10.50;99.90;;;;;;5035242;28;20408;-66
2023/01/11 06:01:14;;;;;;;7.18;1.35;;;10.40;99.90;;;;;;5034863;28;20120;-66
2023/01/11 06:03:39;;;;;;;8.40;0.80;;;10.40;99.90;;;;;;5017109;28;20045;-66
2023/01/11 06:06:06;;;;;;;6.25;1.10;;;10.40;99.90;;;;;;5035151;28;20121;-66
2023/01/11 06:08:31;;;;;;;3.10;0.55;;;10.40;99.90;;;;;;5034936;28;20065;-65
2023/01/11 06:10:57;;;;;;;6.53;1.05;;;10.40;99.90;;;;;;5034663;28;20049;-66
2023/01/11 06:13:27;;;;;;;3.63;0.75;;;10.30;99.90;;;;;;5034684;28;20033;-66
2023/01/11 06:16:04;;;;;;;7.35;1.63;;;10.30;99.90;;;;;;5033877;28;20064;-67
2023/01/11 06:18:33;;;;;;;2.25;1.05;;;10.30;99.90;;;;;;5034894;28;20126;-66
2023/01/11 06:21:00;;;;;;;5.05;1.27;;;10.30;99.90;;;;;;5034833;28;20041;-67
2023/01/11 06:23:26;;;;;;;4.35;0.88;;;10.20;99.90;;;;;;5016813;28;20033;-66
2023/01/11 06:25:52;;;;;;;5.82;1.15;;;10.50;99.90;;;;;;5033338;28;20106;-67
2023/01/11 06:28:18;;;;;;;5.40;0.98;;;10.20;99.90;;;;;;5034752;28;20038;-65
2023/01/11 06:30:49;;;;;;;6.90;1.42;;;10.20;99.90;;;;;;5034646;28;20036;-64
2023/01/11 06:33:15;;;;;;;3.72;0.90;;;10.20;99.90;;;;;;5034565;28;20057;-66
2023/01/11 06:35:42;;;;;;;3.70;1.17;;;10.10;99.90;;;;;;5033101;28;20491;-64
2023/01/11 06:38:13;;;;;;;5.45;0.95;;;10.10;99.90;;;;;;5034482;28;20077;-65
2023/01/11 06:40:40;;;;;;;6.05;1.20;;;10.10;99.90;;;;;;5033047;28;20041;-62
2023/01/11 06:43:06;;;;;;;5.72;0.82;;;10.10;99.90;;;;;;5032947;28;20432;-65
2023/01/11 06:45:32;;;;;;;3.63;0.82;;;10.10;99.90;;;;;;5033211;28;20407;-65
2023/01/11 06:47:58;;;;;;;5.60;1.30;;;10.10;99.90;;;;;;5033083;28;20041;-67
2023/01/11 06:50:25;;;;;;;2.92;1.10;;;10.10;99.90;;;;;;5033908;28;20033;-66
2023/01/11 06:52:58;;;;;;;1.25;0.65;;;10.10;99.90;;;;;;5034199;28;20095;-66
2023/01/11 06:55:26;;;;;;;4.25;1.10;;;10.00;99.90;;;;;;5034166;28;20037;-66
2023/01/11 06:57:52;;;;;;;2.50;0.70;;;10.00;99.90;;;;;;5034118;28;20068;-66
2023/01/11 07:00:18;;;;;;;5.57;0.93;;;10.00;99.90;;;;;;5034120;28;20496;-65
2023/01/11 07:02:45;;;;;;;4.38;0.93;;;9.90;99.90;;;;;;5034100;28;20038;-66
2023/01/11 07:05:11;;;;;;;4.43;0.90;;;9.90;99.90;;;;;;5033903;28;20040;-65
2023/01/11 07:07:38;;;;;;;6.97;1.08;;;9.90;99.90;;;;;;5033882;28;20102;-67
2023/01/11 07:10:06;;;;;;;7.78;1.40;;;9.80;99.90;;;;;;5033556;28;20493;-66
2023/01/11 07:12:32;;;;;;;7.47;1.02;;;9.80;99.90;;;;;;5033599;28;20033;-66
2023/01/11 07:14:58;;;;;;;2.22;0.70;;;9.80;99.90;;;;;;5032558;28;20511;-66
2023/01/11 07:17:24;;;;;;;9.85;1.40;;;9.70;99.90;;;;;;5033809;28;20029;-66
2023/01/11 07:19:50;;;;;;;4.28;1.10;;;9.70;99.90;;;;;;5033519;28;20068;-66
2023/01/11 07:22:16;;;;;;;2.88;1.02;;;9.70;99.90;;;;;;5033774;28;20037;-66
2023/01/11 07:24:41;;;;;;;7.78;1.60;;;9.70;99.90;;;;;;5033659;28;20476;-66
2023/01/11 07:27:07;;;;;;;2.60;0.80;;;9.70;99.90;;;;;;5033379;28;20037;-66
2023/01/11 07:29:32;;;;;;;6.55;1.15;;;9.70;99.90;;;;;;5033577;28;20116;-66
2023/01/11 07:31:58;;;;;;;9.85;1.25;;;9.70;99.90;;;;;;5033584;28;20049;-66
2023/01/11 07:34:24;;;;;;;9.60;1.55;;;9.70;99.90;;;;;;5032002;28;20041;-66
2023/01/11 07:36:49;;;;;;;4.32;1.33;;;9.70;99.90;;;;;;5033134;28;20083;-66
2023/01/11 07:39:15;;;;;;;1.88;0.73;;;9.70;99.90;;;;;;5031904;28;20129;-67
2023/01/11 07:44:25;;;;;;;3.70;1.10;;;9.60;99.90;;;;;;5033148;28;20429;-66
2023/01/11 07:46:50;;;;;;;8.57;1.15;;;9.60;99.90;;;;;;5015429;28;20037;-67
2023/01/11 07:49:16;;;;;;;6.70;1.30;;;9.60;99.90;;;;;;5033277;28;20041;-66
2023/01/11 07:51:41;;;;;;;5.45;1.77;;;9.60;99.90;;;;;;5033302;28;20508;-67
2023/01/11 07:54:07;;;;;;;6.85;1.17;;;9.60;99.90;;;;;;5033241;28;20054;-66
2023/01/11 07:56:33;;;;;;;4.15;1.17;;;9.60;99.90;;;;;;5032283;28;20041;-67
2023/01/11 07:58:58;;;;;;;6.25;1.75;;;9.60;99.90;;;;;;5033137;28;20033;-66
2023/01/11 08:01:24;;;;;;;1.48;0.52;;;9.60;99.90;;;;;;5014695;28;20086;-67
2023/01/11 08:03:50;;;;;;;5.18;1.30;;;9.60;99.90;;;;;;5032502;28;20167;-67
2023/01/11 08:06:15;;;;;;;4.57;1.20;;;9.90;99.90;;;;;;5032799;28;20069;-67
2023/01/11 08:08:42;;;;;;;6.57;1.20;;;9.60;99.90;;;;;;5031542;28;20049;-67
2023/01/11 08:16:36;;;;;;;2.50;0.82;;;8.70;99.90;;;;;;5033036;28;20049;-67
2023/01/11 08:19:02;;;;;;;4.93;0.90;;;9.60;99.90;;;;;;5032889;28;20393;-67
2023/01/11 08:21:28;;;;;;;8.45;1.00;;;9.60;99.90;;;;;;5032990;28;20048;-67
2023/01/11 08:23:55;;;;;;;6.53;1.67;;;9.70;99.90;;;;;;5031596;28;20045;-66
2023/01/11 08:26:25;;;;;;;10.70;1.77;;;9.70;99.90;;;;;;5031388;28;20041;-66
2023/01/11 08:28:52;;;;;;;3.87;1.33;;;9.70;99.90;;;;;;5014929;28;20044;-66
2023/01/11 08:31:18;;;;;;;9.77;1.88;;;9.70;99.90;;;;;;5032961;28;20037;-66
2023/01/11 08:33:44;;;;;;;5.32;1.02;;;9.60;99.90;;;;;;5032854;28;20522;-67
2023/01/11 08:36:11;;;;;;;4.25;0.90;;;9.60;99.90;;;;;;5032512;28;20054;-68
2023/01/11 08:38:37;;;;;;;6.03;0.98;;;9.50;99.90;;;;;;5031247;28;20046;-66
2023/01/11 08:41:09;;;;;;;7.45;1.13;;;9.50;99.90;;;;;;5031265;28;20148;-66
2023/01/11 08:43:39;;;;;;;4.68;0.68;;;9.40;99.90;;;;;;5032775;28;20038;-67
2023/01/11 08:46:05;;;;;;;6.50;0.95;;;9.40;99.90;;;;;;5031312;28;20121;-67
2023/01/11 08:48:31;;;;;;;8.38;1.15;;;9.30;99.90;;;;;;5032312;28;20045;-71
2023/01/11 08:50:56;;;;;;;6.70;0.90;;;9.20;99.90;;;;;;5032686;28;20041;-66
2023/01/11 08:53:22;;;;;;;8.88;0.73;;;9.20;99.90;;;;;;5031365;28;20045;-66
2023/01/11 08:55:48;;;;;;;4.65;0.60;;;9.10;99.90;;;;;;5031469;28;20049;-66
2023/01/11 08:58:14;;;;;;;2.50;0.63;;;9.00;99.90;;;;;;5030958;28;20088;-66
2023/01/11 09:00:41;;;;;;;5.63;0.95;;;9.00;99.90;;;;;;5032459;28;20041;-66
2023/01/11 09:03:07;;;;;;;2.25;0.75;;;8.90;99.90;;;;;;5014922;28;20044;-66
2023/01/11 09:05:33;;;;;;;2.55;1.27;;;8.90;99.90;;;;;;5032321;28;20397;-66
2023/01/11 09:07:58;;;;;;;3.38;0.85;;;8.90;99.90;;;;;;5032323;28;20048;-66
2023/01/11 09:10:25;;;;;;;5.65;0.82;;;8.80;99.90;;;;;;5031080;28;20087;-66
2023/01/11 09:12:52;;;;;;;4.80;0.65;;;8.80;99.90;;;;;;5032815;28;20045;-66
2023/01/11 09:15:18;;;;;;;3.05;0.57;;;8.80;99.90;;;;;;5034699;28;20045;-66
2023/01/11 09:17:45;;;;;;;3.60;0.90;;;8.80;99.90;;;;;;5036100;28;20030;-66
2023/01/11 09:20:11;;;;;;;4.35;0.82;;;8.80;99.90;;;;;;5035718;28;20052;-66
2023/01/11 09:22:37;;;;;;;2.35;0.73;;;8.80;99.90;;;;;;5036005;28;20473;-64
2023/01/11 09:25:03;;;;;;;5.25;1.20;;;8.80;99.90;;;;;;5035953;28;20116;-66
2023/01/11 09:27:29;;;;;;;1.58;1.10;;;8.80;99.90;;;;;;5035566;28;20040;-66
2023/01/11 09:29:55;;;;;;;4.55;0.70;;;8.80;99.90;;;;;;5034354;28;20417;-65
2023/01/11 09:32:21;;;;;;;3.10;0.90;;;8.80;99.90;;;;;;5017947;28;20077;-66
2023/01/11 09:34:48;;;;;;;4.93;0.50;;;8.80;99.90;;;;;;5034636;28;20477;-65
2023/01/11 09:37:14;;;;;;;2.88;1.08;;;8.80;99.90;;;;;;5035792;28;20476;-65
2023/01/11 09:39:40;;;;;;;5.60;0.70;;;9.00;99.90;;;;;;5034217;28;20396;-66
2023/01/11 09:42:15;;;;;;;3.00;0.68;;;8.70;99.90;;;;;;5035728;28;20037;-66
2023/01/11 09:44:48;;;;;;;2.13;0.95;;;8.60;99.90;;;;;;5035642;28;20471;-66
2023/01/11 09:47:40;;;;;;;1.90;0.80;;;8.60;99.90;;;;;;5035572;28;20112;-66
2023/01/11 09:50:25;;;;;;;4.22;0.90;;;8.60;99.90;;;;;;5027372;28;20476;-66
2023/01/11 09:53:06;;;;;;;1.75;0.60;;;8.60;99.90;;;;;;5034323;28;20037;-66
2023/01/11 09:55:39;;;;;;;3.95;0.57;;;8.70;99.90;;;;;;5035459;28;20120;-66
2023/01/11 09:58:04;;;;;;;5.65;0.85;;;8.70;99.90;;;;;;5035321;28;20033;-66
2023/01/11 10:01:02;;;;;;;2.33;1.00;;;8.70;99.90;;;;;;5035271;28;20041;-66
2023/01/11 10:04:07;;;;;;;3.35;0.77;;;8.70;99.90;;;;;;5035300;28;20136;-66
2023/01/11 10:06:58;;;;;;;2.67;0.85;;;8.80;99.90;;;;;;5034051;28;20510;-66
2023/01/11 10:09:41;;;;;;;4.70;1.05;;;8.80;99.90;;;;;;5034770;28;20061;-66
2023/01/11 10:12:30;;;;;;;5.05;1.17;;;8.90;99.90;;;;;;5034947;28;20477;-66
2023/01/11 10:15:37;;;;;;;3.88;0.75;;;9.00;99.90;;;;;;5033584;28;20064;-67
2023/01/11 10:18:21;;;;;;;1.75;0.70;;;9.00;99.90;;;;;;4976855;28;20042;-67
2023/01/11 10:20:51;;;;;;;4.00;1.50;;;9.10;99.90;;;;;;4977244;28;20093;-67
2023/01/11 10:23:48;;;;;;;3.60;1.33;;;9.10;99.90;;;;;;5020003;28;20056;-66
2023/01/11 10:26:34;;;;;;;4.35;0.75;;;9.10;99.90;;;;;;5027026;28;20045;-67
2023/01/11 10:29:21;;;;;;;7.95;0.70;;;9.10;99.90;;;;;;5034697;28;20049;-66
2023/01/11 10:43:03;;;;;;;3.20;0.60;;;9.30;99.90;;;;;;5034258;28;20085;-66
2023/01/11 10:45:49;;;;;;;3.60;0.95;;;9.30;99.90;;;;;;5034117;28;20084;-65
2023/01/11 10:48:38;;;;;;;8.30;1.45;;;9.40;99.90;;;;;;5032889;28;20060;-66
2023/01/11 10:51:30;;;;;;;7.05;1.15;;;9.50;99.90;;;;;;5034294;28;20073;-66
2023/01/11 10:54:20;;;;;;;7.80;1.25;;;9.50;99.90;;;;;;5034012;28;20045;-66
2023/01/11 10:57:14;;;;;;;1.33;0.63;;;9.60;99.90;;;;;;5032805;28;20168;-67
2023/01/11 11:00:06;;;;;;;4.35;1.27;;;9.60;99.90;;;;;;5034138;28;20072;-66
2023/01/11 11:03:07;;;;;;;4.97;1.08;;;9.70;99.90;;;;;;5032915;28;20038;-65
2023/01/11 11:06:12;;;;;;;2.75;0.95;;;9.70;99.90;;;;;;5013993;28;20132;-66
2023/01/11 11:09:11;;;;;;;11.77;1.50;;;9.70;99.90;;;;;;5012321;28;20108;-66
2023/01/11 11:11:45;;;;;;;6.13;1.25;;;9.60;99.90;;;;;;5033072;28;20476;-64
2023/01/11 11:14:11;;;;;;;4.63;0.80;;;9.70;99.90;;;;;;5033846;28;20049;-66
2023/01/11 11:17:05;;;;;;;8.70;0.80;;;9.70;99.90;;;;;;5033873;28;20052;-66
2023/01/11 11:19:32;;;;;;;10.40;1.48;;;9.80;99.90;;;;;;5026049;28;20049;-65
2023/01/11 11:21:58;;;;;;;3.83;1.30;;;9.90;99.90;;;;;;5033799;28;20033;-64
2023/01/11 11:24:34;;;;;;;6.97;1.35;;;10.00;99.90;;;;;;5033683;28;20433;-63
2023/01/11 11:27:21;;;;;;;7.53;1.42;;;10.00;99.90;;;;;;5033676;28;20033;-64
2023/01/11 11:29:55;;;;;;;3.72;1.02;;;10.00;99.90;;;;;;5033481;28;20040;-64
2023/01/11 11:32:31;;;;;;;8.25;1.35;;;10.00;99.90;;;;;;5033340;28;20037;-64
2023/01/11 11:34:57;;;;;;;8.93;1.08;;;10.00;99.90;;;;;;5033620;28;20029;-64
2023/01/11 11:37:35;;;;;;;10.30;1.50;;;10.00;99.90;;;;;;5033800;28;20495;-64
2023/01/11 11:40:02;;;;;;;2.58;0.77;;;10.10;99.90;;;;;;5033361;28;20112;-65
2023/01/11 11:42:27;;;;;;;3.25;1.25;;;10.50;99.90;;;;;;5033514;28;20033;-63
2023/01/11 11:45:08;;;;;;;5.25;1.30;;;10.40;99.90;;;;;;5032147;28;20059;-64
2023/01/11 11:47:34;;;;;;;3.25;1.00;;;10.50;99.90;;;;;;5032140;28;20574;-65
2023/01/11 11:50:18;;;;;;;4.72;1.30;;;10.60;99.90;;;;;;5016010;28;20048;-65
2023/01/11 11:52:52;;;;;;;5.93;1.23;;;10.70;99.90;;;;;;5031832;28;20052;-64
2023/01/11 11:55:25;;;;;;;6.45;1.08;;;10.70;99.90;;;;;;5032933;28;20045;-65
2023/01/11 11:57:51;;;;;;;5.20;0.63;;;10.90;99.90;;;;;;5031750;28;20095;-66
2023/01/11 12:00:33;;;;;;;8.25;1.17;;;11.30;99.90;;;;;;5033194;28;20128;-66
2023/01/11 12:03:10;;;;;;;3.50;0.98;;;11.50;99.90;;;;;;5031798;28;20072;-65
2023/01/11 12:05:36;;;;;;;2.95;0.73;;;11.60;99.90;;;;;;5033198;28;20037;-64
2023/01/11 12:08:02;;;;;;;7.40;0.80;;;11.80;99.90;;;;;;5031461;28;20493;-64
2023/01/11 12:10:30;;;;;;;3.53;1.08;;;11.40;99.90;;;;;;5032847;28;20033;-64
2023/01/11 12:13:01;;;;;;;4.95;1.13;;;11.20;99.90;;;;;;5033171;28;20088;-64
2023/01/11 12:15:29;;;;;;;0.93;0.43;;;11.20;99.90;;;;;;5031735;28;20099;-65
2023/01/11 12:18:21;;;;;;;8.15;1.58;;;11.00;99.90;;;;;;5033090;28;20040;-65
2023/01/11 12:20:47;;;;;;;4.63;1.40;;;11.00;99.90;;;;;;5033104;28;20112;-65
2023/01/11 12:23:15;;;;;;;6.70;1.42;;;11.00;99.90;;;;;;5031456;28;20076;-65
2023/01/11 12:26:09;;;;;;;4.90;1.17;;;10.90;99.90;;;;;;5031467;28;20439;-64
2023/01/11 12:29:08;;;;;;;7.80;1.33;;;10.70;99.90;;;;;;5032993;28;20451;-64
2023/01/11 12:31:55;;;;;;;10.00;1.35;;;10.60;99.90;;;;;;5031453;28;20037;-65
2023/01/11 12:34:55;;;;;;;7.82;1.38;;;10.50;99.90;;;;;;5014939;28;20051;-65
2023/01/11 12:37:48;;;;;;;3.55;1.20;;;10.40;99.90;;;;;;5032881;28;20103;-64
2023/01/11 12:40:33;;;;;;;3.58;1.15;;;10.30;99.90;;;;;;5032456;28;20068;-64
2023/01/11 12:43:17;;;;;;;5.55;1.20;;;10.40;99.90;;;;;;5032883;28;20400;-64
2023/01/11 12:45:53;;;;;;;3.75;1.63;;;10.30;99.90;;;;;;5032837;28;20128;-65
2023/01/11 12:48:54;;;;;;;6.30;1.63;;;11.10;99.90;;;;;;5033721;28;20524;-64
2023/01/11 12:51:49;;;;;;;4.45;0.98;;;10.20;99.90;;;;;;5036622;28;20042;-64
2023/01/11 12:54:46;;;;;;;9.77;1.27;;;10.10;99.90;;;;;;5036285;28;20504;-65
2023/01/11 12:57:31;;;;;;;9.60;1.55;;;10.10;99.90;;;;;;5028129;28;20041;-65
2023/01/11 13:00:12;;;;;;;4.60;1.50;;;10.10;99.90;;;;;;5036131;28;20067;-66
2023/01/11 13:02:55;;;;;;;8.70;1.75;;;10.10;99.90;;;;;;5034979;28;20033;-66
2023/01/11 13:05:30;;;;;;;7.50;1.35;;;10.10;99.90;;;;;;5036331;28;20057;-66
2023/01/11 13:08:14;;;;;;;3.95;1.52;;;10.10;99.90;;;;;;5035951;28;20046;-65
2023/01/11 13:11:00;;;;;;;2.85;1.10;;;10.10;99.90;;;;;;5036227;28;20037;-65
2023/01/11 13:13:32;;;;;;;10.02;1.85;;;9.90;99.90;;;;;;5036227;28;20033;-65
2023/01/11 13:16:16;;;;;;;8.55;1.63;;;9.90;99.90;;;;;;5034961;28;20105;-65
2023/01/11 13:18:50;;;;;;;9.32;0.98;;;9.90;99.90;;;;;;5034882;28;20485;-66
2023/01/11 13:21:20;;;;;;;4.53;1.23;;;9.90;99.90;;;;;;5035879;28;20052;-66
2023/01/11 13:23:52;;;;;;;9.75;2.00;;;10.70;99.90;;;;;;5035957;28;20124;-65
2023/01/11 13:26:37;;;;;;;6.18;1.20;;;10.10;99.90;;;;;;5034752;28;20094;-66
2023/01/11 13:29:14;;;;;;;3.85;0.95;;;10.20;99.90;;;;;;5035903;28;20049;-66
2023/01/11 13:31:41;;;;;;;6.55;2.08;;;10.20;99.90;;;;;;5035825;28;20045;-66
2023/01/11 13:34:35;;;;;;;3.17;0.98;;;10.10;99.90;;;;;;5035751;28;20041;-65
2023/01/11 13:37:09;;;;;;;4.05;1.40;;;10.10;99.90;;;;;;5035768;28;20045;-65
2023/01/11 13:39:50;;;;;;;7.55;1.38;;;9.90;99.90;;;;;;5035648;28;20045;-65
2023/01/11 13:42:38;;;;;;;6.28;1.83;;;9.80;99.90;;;;;;5017756;28;20046;-66
2023/01/11 13:45:26;;;;;;;5.97;0.90;;;9.80;99.90;;;;;;5035174;28;20489;-65
2023/01/11 13:48:00;;;;;;;6.05;1.75;;;9.60;99.90;;;;;;5035564;28;20116;-66
2023/01/11 13:50:40;;;;;;;9.55;1.42;;;9.60;99.90;;;;;;5033907;28;20056;-65
2023/01/11 13:53:25;;;;;;;8.68;1.23;;;9.70;99.90;;;;;;5035428;28;20046;-65
2023/01/11 13:56:01;;;;;;;7.10;1.85;;;9.60;99.90;;;;;;5035421;28;20501;-65
2023/01/11 13:58:45;;;;;;;7.05;1.85;;;9.70;99.90;;;;;;5035284;28;20052;-65